sensor_id;sensor_type;location;lat;lon;timestamp;pressure;altitude;pressure_sealevel;temperature;humidity
69836;BME280;57132;51.972;4.450;2023-03-18T00:01:45;100695.59;;;7.89;100.00
69836;BME280;57132;51.972;4.450;2023-03-18T00:04:11;100698.81;;;7.80;100.00
69836;BME280;57132;51.972;4.450;2023-03-18T00:06:37;100692.16;;;7.73;100.00
69836;BME280;57132;51.972;4.450;2023-03-18T00:09:03;100694.16;;;7.70;100.00
69836;BME280;57132;51.972;4.450;2023-03-18T00:11:29;100694.25;;;7.68;100.00
69836;BME280;57132;51.972;4.450;2023-03-18T00:13:56;100699.81;;;7.63;100.00
69836;BME280;57132;51.972;4.450;2023-03-18T00:16:21;100700.03;;;7.60;100.00
69836;BME280;57132;51.972;4.450;2023-03-18T00:18:47;100698.31;;;7.59;100.00
69836;BME280;57132;51.972;4.450;2023-03-18T00:21:14;100700.97;;;7.59;100.00
69836;BME280;57132;51.972;4.450;2023-03-18T00:23:41;100696.59;;;7.58;100.00
69836;BME280;57132;51.972;4.450;2023-03-18T00:26:07;100693.19;;;7.56;100.00
69836;BME280;57132;51.972;4.450;2023-03-18T00:28:33;100695.06;;;7.54;100.00
69836;BME280;57132;51.972;4.450;2023-03-18T00:31:07;100692.53;;;7.53;100.00
69836;BME280;57132;51.972;4.450;2023-03-18T00:33:36;100682.81;;;7.52;100.00
69836;BME280;57132;51.972;4.450;2023-03-18T00:36:02;100692.44;;;7.54;100.00
69836;BME280;57132;51.972;4.450;2023-03-18T00:38:28;100691.97;;;7.62;100.00
69836;BME280;57132;51.972;4.450;2023-03-18T00:40:54;100694.34;;;7.67;100.00
69836;BME280;57132;51.972;4.450;2023-03-18T00:43:29;100682.69;;;7.69;100.00
69836;BME280;57132;51.972;4.450;2023-03-18T00:45:58;100692.44;;;7.69;100.00
69836;BME280;57132;51.972;4.450;2023-03-18T00:48:25;100693.13;;;7.72;100.00
69836;BME280;57132;51.972;4.450;2023-03-18T00:50:51;100698.22;;;7.75;100.00
69836;BME280;57132;51.972;4.450;2023-03-18T00:53:17;100694.53;;;7.78;100.00
69836;BME280;57132;51.972;4.450;2023-03-18T00:55:42;100702.31;;;7.81;100.00
69836;BME280;57132;51.972;4.450;2023-03-18T00:58:09;100698.53;;;7.85;100.00
69836;BME280;57132;51.972;4.450;2023-03-18T01:00:36;100693.78;;;7.90;100.00
69836;BME280;57132;51.972;4.450;2023-03-18T01:03:03;100685.69;;;7.92;100.00
69836;BME280;57132;51.972;4.450;2023-03-18T01:05:30;100692.44;;;7.97;100.00
69836;BME280;57132;51.972;4.450;2023-03-18T01:07:55;100693.78;;;8.04;100.00
69836;BME280;57132;51.972;4.450;2023-03-18T01:10:22;100690.72;;;8.10;100.00
69836;BME280;57132;51.972;4.450;2023-03-18T01:12:48;100686.72;;;8.18;100.00
69836;BME280;57132;51.972;4.450;2023-03-18T01:15:16;100697.06;;;8.22;100.00
69836;BME280;57132;51.972;4.450;2023-03-18T01:17:43;100698.28;;;8.31;100.00
69836;BME280;57132;51.972;4.450;2023-03-18T01:20:10;100700.41;;;8.40;100.00
69836;BME280;57132;51.972;4.450;2023-03-18T01:22:37;100696.50;;;8.46;100.00
69836;BME280;57132;51.972;4.450;2023-03-18T01:25:06;100698.66;;;8.53;100.00
69836;BME280;57132;51.972;4.450;2023-03-18T01:27:33;100702.84;;;8.57;100.00
69836;BME280;57132;51.972;4.450;2023-03-18T01:29:58;100700.94;;;8.59;100.00
69836;BME280;57132;51.972;4.450;2023-03-18T01:32:24;100694.66;;;8.60;100.00
69836;BME280;57132;51.972;4.450;2023-03-18T01:34:49;100702.13;;;8.68;100.00
69836;BME280;57132;51.972;4.450;2023-03-18T01:37:14;100702.88;;;8.70;100.00
69836;BME280;57132;51.972;4.450;2023-03-18T01:39:40;100693.75;;;8.74;100.00
69836;BME280;57132;51.972;4.450;2023-03-18T01:42:05;100692.03;;;8.73;100.00
69836;BME280;57132;51.972;4.450;2023-03-18T01:44:31;100694.03;;;8.70;100.00
69836;BME280;57132;51.972;4.450;2023-03-18T01:46:56;100703.84;;;8.69;100.00
69836;BME280;57132;51.972;4.450;2023-03-18T01:49:33;100698.31;;;8.72;100.00
69836;BME280;57132;51.972;4.450;2023-03-18T01:52:07;100695.66;;;8.72;100.00
69836;BME280;57132;51.972;4.450;2023-03-18T01:54:35;100701.19;;;8.69;100.00
69836;BME280;57132;51.972;4.450;2023-03-18T01:57:02;100705.00;;;8.65;100.00
69836;BME280;57132;51.972;4.450;2023-03-18T01:59:30;100703.50;;;8.61;100.00
69836;BME280;57132;51.972;4.450;2023-03-18T02:02:06;100706.44;;;8.56;100.00
69836;BME280;57132;51.972;4.450;2023-03-18T02:04:40;100715.09;;;8.60;100.00
69836;BME280;57132;51.972;4.450;2023-03-18T02:07:06;100711.34;;;8.62;100.00
69836;BME280;57132;51.972;4.450;2023-03-18T02:09:32;100708.50;;;8.66;100.00
69836;BME280;57132;51.972;4.450;2023-03-18T02:12:00;100706.19;;;8.74;100.00
69836;BME280;57132;51.972;4.450;2023-03-18T02:14:25;100709.50;;;8.77;100.00
69836;BME280;57132;51.972;4.450;2023-03-18T02:17:07;100700.50;;;8.80;100.00
69836;BME280;57132;51.972;4.450;2023-03-18T02:22:34;100698.56;;;8.82;100.00
69836;BME280;57132;51.972;4.450;2023-03-18T02:27:35;100712.63;;;8.84;100.00
69836;BME280;57132;51.972;4.450;2023-03-18T02:30:06;100713.59;;;8.83;100.00
69836;BME280;57132;51.972;4.450;2023-03-18T02:32:35;100717.78;;;8.87;100.00
69836;BME280;57132;51.972;4.450;2023-03-18T02:35:04;100716.69;;;8.90;100.00
69836;BME280;57132;51.972;4.450;2023-03-18T02:37:32;100713.44;;;8.99;100.00
69836;BME280;57132;51.972;4.450;2023-03-18T02:40:24;100706.66;;;9.07;100.00
69836;BME280;57132;51.972;4.450;2023-03-18T02:42:50;100705.38;;;9.13;100.00
69836;BME280;57132;51.972;4.450;2023-03-18T02:47:48;100707.31;;;9.24;100.00
69836;BME280;57132;51.972;4.450;2023-03-18T02:50:15;100711.50;;;9.28;100.00
69836;BME280;57132;51.972;4.450;2023-03-18T02:52:42;100714.16;;;9.28;100.00
69836;BME280;57132;51.972;4.450;2023-03-18T02:55:08;100715.84;;;9.29;100.00
69836;BME280;57132;51.972;4.450;2023-03-18T02:57:33;100714.88;;;9.30;100.00
69836;BME280;57132;51.972;4.450;2023-03-18T03:00:02;100724.38;;;9.34;100.00
69836;BME280;57132;51.972;4.450;2023-03-18T03:02:29;100723.44;;;9.35;100.00
69836;BME280;57132;51.972;4.450;2023-03-18T03:04:55;100722.28;;;9.39;100.00
69836;BME280;57132;51.972;4.450;2023-03-18T03:07:26;100718.66;;;9.40;100.00
69836;BME280;57132;51.972;4.450;2023-03-18T03:09:52;100731.53;;;9.46;100.00
69836;BME280;57132;51.972;4.450;2023-03-18T03:12:17;100730.03;;;9.42;100.00
69836;BME280;57132;51.972;4.450;2023-03-18T03:14:43;100719.63;;;9.39;100.00
69836;BME280;57132;51.972;4.450;2023-03-18T03:17:08;100721.50;;;9.37;100.00
69836;BME280;57132;51.972;4.450;2023-03-18T03:19:35;100720.00;;;9.33;100.00
69836;BME280;57132;51.972;4.450;2023-03-18T03:22:01;100734.28;;;9.32;100.00
69836;BME280;57132;51.972;4.450;2023-03-18T03:24:26;100739.50;;;9.33;100.00
69836;BME280;57132;51.972;4.450;2023-03-18T03:26:51;100742.47;;;9.29;100.00
69836;BME280;57132;51.972;4.450;2023-03-18T03:29:17;100728.44;;;9.27;100.00
69836;BME280;57132;51.972;4.450;2023-03-18T03:31:43;100738.31;;;9.25;100.00
69836;BME280;57132;51.972;4.450;2023-03-18T03:34:08;100745.66;;;9.21;100.00
69836;BME280;57132;51.972;4.450;2023-03-18T03:36:35;100750.13;;;9.21;100.00
69836;BME280;57132;51.972;4.450;2023-03-18T03:39:00;100743.00;;;9.21;100.00
69836;BME280;57132;51.972;4.450;2023-03-18T03:41:26;100746.63;;;9.20;100.00
69836;BME280;57132;51.972;4.450;2023-03-18T03:43:51;100753.09;;;9.16;100.00
69836;BME280;57132;51.972;4.450;2023-03-18T03:46:17;100741.69;;;9.14;100.00
69836;BME280;57132;51.972;4.450;2023-03-18T03:48:42;100747.28;;;9.24;100.00
69836;BME280;57132;51.972;4.450;2023-03-18T03:51:08;100748.66;;;9.29;100.00
69836;BME280;57132;51.972;4.450;2023-03-18T03:53:33;100751.97;;;9.33;100.00
69836;BME280;57132;51.972;4.450;2023-03-18T03:56:00;100746.75;;;9.31;100.00
69836;BME280;57132;51.972;4.450;2023-03-18T03:58:26;100746.13;;;9.28;100.00
69836;BME280;57132;51.972;4.450;2023-03-18T04:00:51;100736.69;;;9.22;100.00
69836;BME280;57132;51.972;4.450;2023-03-18T04:03:19;100735.31;;;9.17;100.00
69836;BME280;57132;51.972;4.450;2023-03-18T04:05:45;100734.66;;;9.13;100.00
69836;BME280;57132;51.972;4.450;2023-03-18T04:08:10;100742.97;;;9.08;100.00
69836;BME280;57132;51.972;4.450;2023-03-18T04:10:36;100740.50;;;9.05;100.00
69836;BME280;57132;51.972;4.450;2023-03-18T04:13:03;100754.56;;;9.07;100.00
69836;BME280;57132;51.972;4.450;2023-03-18T04:15:28;100755.63;;;9.05;100.00
69836;BME280;57132;51.972;4.450;2023-03-18T04:17:54;100754.22;;;8.99;100.00
69836;BME280;57132;51.972;4.450;2023-03-18T04:20:20;100770.28;;;8.98;100.00
69836;BME280;57132;51.972;4.450;2023-03-18T04:22:46;100765.16;;;8.95;100.00
69836;BME280;57132;51.972;4.450;2023-03-18T04:25:12;100759.81;;;8.95;100.00
69836;BME280;57132;51.972;4.450;2023-03-18T04:27:39;100777.84;;;8.91;100.00
69836;BME280;57132;51.972;4.450;2023-03-18T04:30:06;100779.84;;;8.88;100.00
69836;BME280;57132;51.972;4.450;2023-03-18T04:32:32;100784.50;;;8.84;100.00
69836;BME280;57132;51.972;4.450;2023-03-18T04:34:58;100801.50;;;8.81;100.00
69836;BME280;57132;51.972;4.450;2023-03-18T04:37:24;100796.50;;;8.77;100.00
69836;BME280;57132;51.972;4.450;2023-03-18T04:39:49;100792.31;;;8.73;100.00
69836;BME280;57132;51.972;4.450;2023-03-18T04:42:15;100794.78;;;8.76;100.00
69836;BME280;57132;51.972;4.450;2023-03-18T04:44:42;100793.53;;;8.81;100.00
69836;BME280;57132;51.972;4.450;2023-03-18T04:47:08;100801.44;;;8.83;100.00
69836;BME280;57132;51.972;4.450;2023-03-18T04:49:33;100800.97;;;8.76;100.00
69836;BME280;57132;51.972;4.450;2023-03-18T04:52:00;100807.50;;;8.71;100.00
69836;BME280;57132;51.972;4.450;2023-03-18T04:54:28;100810.28;;;8.69;100.00
69836;BME280;57132;51.972;4.450;2023-03-18T04:56:55;100811.97;;;8.70;100.00
69836;BME280;57132;51.972;4.450;2023-03-18T04:59:20;100817.31;;;8.70;100.00
69836;BME280;57132;51.972;4.450;2023-03-18T05:01:45;100804.66;;;8.74;100.00
69836;BME280;57132;51.972;4.450;2023-03-18T05:04:11;100813.41;;;8.76;100.00
69836;BME280;57132;51.972;4.450;2023-03-18T05:06:36;100812.16;;;8.81;100.00
69836;BME280;57132;51.972;4.450;2023-03-18T05:09:03;100805.88;;;8.82;100.00
69836;BME280;57132;51.972;4.450;2023-03-18T05:11:30;100805.97;;;8.81;100.00
69836;BME280;57132;51.972;4.450;2023-03-18T05:13:55;100804.16;;;8.81;100.00
69836;BME280;57132;51.972;4.450;2023-03-18T05:16:22;100801.69;;;8.78;100.00
69836;BME280;57132;51.972;4.450;2023-03-18T05:18:47;100803.63;;;8.76;100.00
69836;BME280;57132;51.972;4.450;2023-03-18T05:21:13;100793.72;;;8.78;100.00
69836;BME280;57132;51.972;4.450;2023-03-18T05:23:39;100808.84;;;8.78;100.00
69836;BME280;57132;51.972;4.450;2023-03-18T05:26:05;100800.66;;;8.81;100.00
69836;BME280;57132;51.972;4.450;2023-03-18T05:28:31;100792.50;;;8.84;100.00
69836;BME280;57132;51.972;4.450;2023-03-18T05:30:58;100804.28;;;8.80;100.00
69836;BME280;57132;51.972;4.450;2023-03-18T05:33:23;100799.44;;;8.72;100.00
69836;BME280;57132;51.972;4.450;2023-03-18T05:35:49;100799.75;;;8.68;100.00
69836;BME280;57132;51.972;4.450;2023-03-18T05:38:14;100797.28;;;8.65;100.00
69836;BME280;57132;51.972;4.450;2023-03-18T05:40:41;100795.66;;;8.62;100.00
69836;BME280;57132;51.972;4.450;2023-03-18T05:43:07;100789.88;;;8.55;100.00
69836;BME280;57132;51.972;4.450;2023-03-18T05:45:33;100782.28;;;8.49;100.00
69836;BME280;57132;51.972;4.450;2023-03-18T05:47:58;100786.25;;;8.42;100.00
69836;BME280;57132;51.972;4.450;2023-03-18T05:50:28;100785.97;;;8.32;100.00
69836;BME280;57132;51.972;4.450;2023-03-18T05:52:54;100789.28;;;8.22;100.00
69836;BME280;57132;51.972;4.450;2023-03-18T05:55:20;100791.00;;;8.08;100.00
69836;BME280;57132;51.972;4.450;2023-03-18T05:57:46;100793.34;;;7.99;100.00
69836;BME280;57132;51.972;4.450;2023-03-18T06:00:13;100800.84;;;7.92;100.00
69836;BME280;57132;51.972;4.450;2023-03-18T06:02:39;100797.81;;;7.84;100.00
69836;BME280;57132;51.972;4.450;2023-03-18T06:05:05;100791.88;;;7.79;100.00
69836;BME280;57132;51.972;4.450;2023-03-18T06:07:30;100806.03;;;7.79;100.00
69836;BME280;57132;51.972;4.450;2023-03-18T06:09:56;100803.47;;;7.78;100.00
69836;BME280;57132;51.972;4.450;2023-03-18T06:12:21;100812.28;;;7.78;100.00
69836;BME280;57132;51.972;4.450;2023-03-18T06:14:51;100817.25;;;7.84;100.00
69836;BME280;57132;51.972;4.450;2023-03-18T06:17:17;100822.56;;;7.99;100.00
69836;BME280;57132;51.972;4.450;2023-03-18T06:19:42;100826.31;;;8.10;100.00
69836;BME280;57132;51.972;4.450;2023-03-18T06:22:09;100836.00;;;8.26;100.00
69836;BME280;57132;51.972;4.450;2023-03-18T06:24:34;100841.16;;;8.43;100.00
69836;BME280;57132;51.972;4.450;2023-03-18T06:26:59;100840.63;;;8.52;100.00
69836;BME280;57132;51.972;4.450;2023-03-18T06:29:25;100847.66;;;8.68;100.00
69836;BME280;57132;51.972;4.450;2023-03-18T06:31:51;100840.78;;;8.78;100.00
69836;BME280;57132;51.972;4.450;2023-03-18T06:34:16;100850.84;;;8.87;100.00
69836;BME280;57132;51.972;4.450;2023-03-18T06:36:42;100856.31;;;8.98;100.00
69836;BME280;57132;51.972;4.450;2023-03-18T06:39:08;100860.22;;;9.07;100.00
69836;BME280;57132;51.972;4.450;2023-03-18T06:41:33;100854.41;;;9.15;100.00
69836;BME280;57132;51.972;4.450;2023-03-18T06:44:00;100869.03;;;9.22;100.00
69836;BME280;57132;51.972;4.450;2023-03-18T06:46:26;100854.53;;;9.26;100.00
69836;BME280;57132;51.972;4.450;2023-03-18T06:48:51;100867.84;;;9.40;100.00
69836;BME280;57132;51.972;4.450;2023-03-18T06:51:18;100872.75;;;9.46;100.00
69836;BME280;57132;51.972;4.450;2023-03-18T06:53:44;100871.19;;;9.56;100.00
69836;BME280;57132;51.972;4.450;2023-03-18T06:56:10;100870.50;;;9.67;100.00
69836;BME280;57132;51.972;4.450;2023-03-18T06:58:40;100877.13;;;9.74;100.00
69836;BME280;57132;51.972;4.450;2023-03-18T07:01:05;100872.78;;;9.86;100.00
69836;BME280;57132;51.972;4.450;2023-03-18T07:03:33;100876.31;;;9.99;100.00
69836;BME280;57132;51.972;4.450;2023-03-18T07:06:00;100875.34;;;10.00;100.00
69836;BME280;57132;51.972;4.450;2023-03-18T07:08:29;100878.28;;;10.10;100.00
69836;BME280;57132;51.972;4.450;2023-03-18T07:10:55;100869.50;;;10.21;100.00
69836;BME280;57132;51.972;4.450;2023-03-18T07:13:21;100876.16;;;10.28;100.00
69836;BME280;57132;51.972;4.450;2023-03-18T07:15:46;100874.78;;;10.35;100.00
69836;BME280;57132;51.972;4.450;2023-03-18T07:18:11;100872.13;;;10.35;100.00
69836;BME280;57132;51.972;4.450;2023-03-18T07:20:38;100889.50;;;10.41;100.00
69836;BME280;57132;51.972;4.450;2023-03-18T07:23:04;100883.00;;;10.45;100.00
69836;BME280;57132;51.972;4.450;2023-03-18T07:25:30;100877.78;;;10.43;100.00
69836;BME280;57132;51.972;4.450;2023-03-18T07:27:57;100874.91;;;10.46;100.00
69836;BME280;57132;51.972;4.450;2023-03-18T07:30:24;100885.56;;;10.46;100.00
69836;BME280;57132;51.972;4.450;2023-03-18T07:32:54;100884.72;;;10.46;100.00
69836;BME280;57132;51.972;4.450;2023-03-18T07:35:19;100885.25;;;10.51;100.00
69836;BME280;57132;51.972;4.450;2023-03-18T07:37:46;100886.63;;;10.44;100.00
69836;BME280;57132;51.972;4.450;2023-03-18T07:40:11;100877.25;;;10.51;100.00
69836;BME280;57132;51.972;4.450;2023-03-18T07:42:38;100888.66;;;10.53;100.00
69836;BME280;57132;51.972;4.450;2023-03-18T07:45:07;100898.28;;;10.55;100.00
69836;BME280;57132;51.972;4.450;2023-03-18T07:47:33;100903.84;;;10.65;100.00
69836;BME280;57132;51.972;4.450;2023-03-18T07:49:58;100912.88;;;10.75;100.00
69836;BME280;57132;51.972;4.450;2023-03-18T07:52:24;100905.50;;;10.92;100.00
69836;BME280;57132;51.972;4.450;2023-03-18T07:54:50;100912.63;;;11.04;100.00
69836;BME280;57132;51.972;4.450;2023-03-18T07:57:16;100913.56;;;11.16;100.00
69836;BME280;57132;51.972;4.450;2023-03-18T07:59:42;100913.56;;;11.28;100.00
69836;BME280;57132;51.972;4.450;2023-03-18T08:02:12;100919.81;;;11.40;100.00
69836;BME280;57132;51.972;4.450;2023-03-18T08:04:39;100916.53;;;11.61;100.00
69836;BME280;57132;51.972;4.450;2023-03-18T08:07:04;100897.13;;;11.70;100.00
69836;BME280;57132;51.972;4.450;2023-03-18T08:09:30;100890.47;;;11.75;100.00
69836;BME280;57132;51.972;4.450;2023-03-18T08:11:56;100885.69;;;11.68;100.00
69836;BME280;57132;51.972;4.450;2023-03-18T08:14:22;100895.19;;;11.72;100.00
69836;BME280;57132;51.972;4.450;2023-03-18T08:16:47;100895.66;;;11.66;100.00
69836;BME280;57132;51.972;4.450;2023-03-18T08:19:14;100897.84;;;11.72;100.00
69836;BME280;57132;51.972;4.450;2023-03-18T08:21:41;100900.53;;;11.72;100.00
69836;BME280;57132;51.972;4.450;2023-03-18T08:24:07;100905.03;;;11.71;100.00
69836;BME280;57132;51.972;4.450;2023-03-18T08:26:34;100902.84;;;11.65;100.00
69836;BME280;57132;51.972;4.450;2023-03-18T08:29:00;100901.16;;;11.88;100.00
69836;BME280;57132;51.972;4.450;2023-03-18T08:31:25;100926.97;;;12.00;100.00
69836;BME280;57132;51.972;4.450;2023-03-18T08:33:51;100926.81;;;12.26;100.00
69836;BME280;57132;51.972;4.450;2023-03-18T08:36:20;100925.75;;;12.51;100.00
69836;BME280;57132;51.972;4.450;2023-03-18T08:38:45;100937.84;;;12.57;100.00
69836;BME280;57132;51.972;4.450;2023-03-18T08:41:10;100936.28;;;12.88;100.00
69836;BME280;57132;51.972;4.450;2023-03-18T08:43:36;100948.56;;;12.90;100.00
69836;BME280;57132;51.972;4.450;2023-03-18T08:46:01;100945.53;;;12.84;100.00
69836;BME280;57132;51.972;4.450;2023-03-18T08:48:28;100947.84;;;13.22;100.00
69836;BME280;57132;51.972;4.450;2023-03-18T08:50:55;100949.38;;;13.69;100.00
69836;BME280;57132;51.972;4.450;2023-03-18T08:53:21;100957.31;;;14.35;100.00
69836;BME280;57132;51.972;4.450;2023-03-18T08:55:47;100965.31;;;14.46;100.00
69836;BME280;57132;51.972;4.450;2023-03-18T08:58:13;100980.03;;;13.56;100.00
69836;BME280;57132;51.972;4.450;2023-03-18T09:00:40;100983.50;;;12.77;100.00
69836;BME280;57132;51.972;4.450;2023-03-18T09:03:05;100979.03;;;12.32;100.00
69836;BME280;57132;51.972;4.450;2023-03-18T09:05:31;100967.22;;;13.14;100.00
69836;BME280;57132;51.972;4.450;2023-03-18T09:07:57;100972.03;;;15.44;100.00
69836;BME280;57132;51.972;4.450;2023-03-18T09:10:25;100975.50;;;17.01;93.56
69836;BME280;57132;51.972;4.450;2023-03-18T09:12:50;100972.09;;;17.91;86.18
69836;BME280;57132;51.972;4.450;2023-03-18T09:15:16;100964.84;;;18.10;83.58
69836;BME280;57132;51.972;4.450;2023-03-18T09:17:45;100962.59;;;17.87;81.79
69836;BME280;57132;51.972;4.450;2023-03-18T09:20:13;100951.34;;;18.72;74.34
69836;BME280;57132;51.972;4.450;2023-03-18T09:22:40;100951.78;;;18.85;73.78
69836;BME280;57132;51.972;4.450;2023-03-18T09:25:07;100959.19;;;19.09;67.23
69836;BME280;57132;51.972;4.450;2023-03-18T09:27:33;100958.22;;;17.59;76.06
69836;BME280;57132;51.972;4.450;2023-03-18T09:29:58;100965.88;;;16.99;79.78
69836;BME280;57132;51.972;4.450;2023-03-18T09:32:23;100966.09;;;17.15;81.25
69836;BME280;57132;51.972;4.450;2023-03-18T09:34:49;100976.84;;;17.52;81.15
69836;BME280;57132;51.972;4.450;2023-03-18T09:37:16;100987.38;;;18.01;75.62
69836;BME280;57132;51.972;4.450;2023-03-18T09:39:42;100972.97;;;18.72;74.46
69836;BME280;57132;51.972;4.450;2023-03-18T09:44:40;100967.00;;;18.24;71.25
69836;BME280;57132;51.972;4.450;2023-03-18T09:52:38;100951.03;;;15.28;90.11
69836;BME280;57132;51.972;4.450;2023-03-18T09:55:13;100966.44;;;14.12;100.00
69836;BME280;57132;51.972;4.450;2023-03-18T09:57:44;100957.28;;;13.82;100.00
69836;BME280;57132;51.972;4.450;2023-03-18T10:00:17;100954.69;;;13.37;100.00
69836;BME280;57132;51.972;4.450;2023-03-18T10:05:31;100946.28;;;13.19;100.00
69836;BME280;57132;51.972;4.450;2023-03-18T10:08:06;100961.41;;;13.32;100.00
69836;BME280;57132;51.972;4.450;2023-03-18T10:10:42;100960.53;;;13.09;100.00
69836;BME280;57132;51.972;4.450;2023-03-18T10:15:41;100955.81;;;13.35;100.00
69836;BME280;57132;51.972;4.450;2023-03-18T10:18:23;100961.28;;;13.11;100.00
69836;BME280;57132;51.972;4.450;2023-03-18T10:23:54;100961.13;;;13.12;100.00
69836;BME280;57132;51.972;4.450;2023-03-18T10:26:36;100967.09;;;13.38;100.00
69836;BME280;57132;51.972;4.450;2023-03-18T10:32:27;100967.97;;;13.93;100.00
69836;BME280;57132;51.972;4.450;2023-03-18T10:35:00;100984.78;;;14.07;100.00
69836;BME280;57132;51.972;4.450;2023-03-18T10:40:18;100970.28;;;13.55;100.00
69836;BME280;57132;51.972;4.450;2023-03-18T10:42:44;100972.75;;;13.24;100.00
69836;BME280;57132;51.972;4.450;2023-03-18T10:45:30;100976.75;;;13.29;100.00
69836;BME280;57132;51.972;4.450;2023-03-18T10:48:04;100972.47;;;13.04;100.00
69836;BME280;57132;51.972;4.450;2023-03-18T10:50:45;100978.19;;;12.89;100.00
69836;BME280;57132;51.972;4.450;2023-03-18T10:56:10;100982.53;;;12.67;100.00
69836;BME280;57132;51.972;4.450;2023-03-18T10:58:37;100986.25;;;12.53;100.00
69836;BME280;57132;51.972;4.450;2023-03-18T11:01:05;100994.69;;;12.25;100.00
69836;BME280;57132;51.972;4.450;2023-03-18T11:03:34;100983.13;;;12.24;100.00
69836;BME280;57132;51.972;4.450;2023-03-18T11:06:03;100990.25;;;12.13;100.00
69836;BME280;57132;51.972;4.450;2023-03-18T11:08:38;100986.50;;;11.91;100.00
69836;BME280;57132;51.972;4.450;2023-03-18T11:13:49;100992.47;;;11.58;100.00
69836;BME280;57132;51.972;4.450;2023-03-18T11:18:50;100977.69;;;11.65;100.00
69836;BME280;57132;51.972;4.450;2023-03-18T11:21:27;100972.00;;;11.70;100.00
69836;BME280;57132;51.972;4.450;2023-03-18T11:24:03;100971.44;;;11.77;100.00
69836;BME280;57132;51.972;4.450;2023-03-18T11:26:47;100969.25;;;11.95;100.00
69836;BME280;57132;51.972;4.450;2023-03-18T11:29:16;100956.56;;;12.10;100.00
69836;BME280;57132;51.972;4.450;2023-03-18T11:31:55;100952.28;;;12.43;100.00
69836;BME280;57132;51.972;4.450;2023-03-18T11:34:23;100952.47;;;12.97;100.00
69836;BME280;57132;51.972;4.450;2023-03-18T11:37:08;100950.16;;;13.38;100.00
69836;BME280;57132;51.972;4.450;2023-03-18T11:39:39;100940.44;;;13.80;100.00
69836;BME280;57132;51.972;4.450;2023-03-18T11:42:20;100952.25;;;13.89;100.00
69836;BME280;57132;51.972;4.450;2023-03-18T11:44:46;100950.47;;;14.10;100.00
69836;BME280;57132;51.972;4.450;2023-03-18T11:47:18;100955.06;;;14.40;100.00
69836;BME280;57132;51.972;4.450;2023-03-18T11:49:46;100956.88;;;14.51;100.00
69836;BME280;57132;51.972;4.450;2023-03-18T11:56:04;100963.56;;;14.78;100.00
69836;BME280;57132;51.972;4.450;2023-03-18T12:00:43;100971.09;;;15.14;99.58
69836;BME280;57132;51.972;4.450;2023-03-18T12:06:23;100958.59;;;16.04;96.69
69836;BME280;57132;51.972;4.450;2023-03-18T12:11:45;100953.47;;;15.81;92.29
69836;BME280;57132;51.972;4.450;2023-03-18T12:14:31;100956.78;;;15.44;94.53
69836;BME280;57132;51.972;4.450;2023-03-18T12:17:10;100958.16;;;15.39;93.58
69836;BME280;57132;51.972;4.450;2023-03-18T12:22:52;100954.13;;;14.62;96.65
69836;BME280;57132;51.972;4.450;2023-03-18T12:25:51;100949.72;;;14.82;95.96
69836;BME280;57132;51.972;4.450;2023-03-18T12:47:27;100946.28;;;15.41;90.93
69836;BME280;57132;51.972;4.450;2023-03-18T12:50:03;100937.59;;;15.78;87.72
69836;BME280;57132;51.972;4.450;2023-03-18T12:52:34;100945.56;;;16.28;87.96
69836;BME280;57132;51.972;4.450;2023-03-18T12:55:25;100944.13;;;16.34;87.77
69836;BME280;57132;51.972;4.450;2023-03-18T12:58:00;100944.94;;;15.66;84.69
69836;BME280;57132;51.972;4.450;2023-03-18T13:06:02;100929.66;;;15.67;90.79
69836;BME280;57132;51.972;4.450;2023-03-18T13:11:46;100926.97;;;17.01;85.80
69836;BME280;57132;51.972;4.450;2023-03-18T13:17:02;100932.63;;;17.35;79.11
69836;BME280;57132;51.972;4.450;2023-03-18T13:19:29;100929.47;;;17.12;80.78
69836;BME280;57132;51.972;4.450;2023-03-18T13:22:10;100923.25;;;16.45;82.32
69836;BME280;57132;51.972;4.450;2023-03-18T13:27:31;100921.97;;;16.50;87.17
69836;BME280;57132;51.972;4.450;2023-03-18T13:38:21;100915.50;;;15.74;85.38
69836;BME280;57132;51.972;4.450;2023-03-18T13:41:10;100918.47;;;16.39;89.60
69836;BME280;57132;51.972;4.450;2023-03-18T13:43:44;100915.53;;;17.17;85.38
69836;BME280;57132;51.972;4.450;2023-03-18T13:46:22;100916.25;;;17.64;79.21
69836;BME280;57132;51.972;4.450;2023-03-18T13:48:54;100914.38;;;17.92;75.18
69836;BME280;57132;51.972;4.450;2023-03-18T13:53:52;100909.88;;;18.19;68.70
69836;BME280;57132;51.972;4.450;2023-03-18T13:56:45;100896.22;;;17.85;70.07
69836;BME280;57132;51.972;4.450;2023-03-18T14:05:39;100889.16;;;16.83;81.28
69836;BME280;57132;51.972;4.450;2023-03-18T14:13:56;100879.88;;;16.95;79.17
69836;BME280;57132;51.972;4.450;2023-03-18T14:19:27;100888.75;;;17.33;80.30
69836;BME280;57132;51.972;4.450;2023-03-18T14:27:57;100893.81;;;16.15;77.92
69836;BME280;57132;51.972;4.450;2023-03-18T14:35:55;100882.41;;;15.43;83.10
69836;BME280;57132;51.972;4.450;2023-03-18T14:38:29;100875.53;;;15.60;84.89
69836;BME280;57132;51.972;4.450;2023-03-18T14:40:57;100865.66;;;15.80;85.77
69836;BME280;57132;51.972;4.450;2023-03-18T14:43:40;100872.59;;;15.92;85.11
69836;BME280;57132;51.972;4.450;2023-03-18T14:46:15;100868.03;;;16.12;83.33
69836;BME280;57132;51.972;4.450;2023-03-18T14:48:43;100870.56;;;16.23;82.29
69836;BME280;57132;51.972;4.450;2023-03-18T14:51:21;100868.88;;;16.13;81.48
69836;BME280;57132;51.972;4.450;2023-03-18T14:54:04;100865.34;;;16.03;81.82
69836;BME280;57132;51.972;4.450;2023-03-18T14:56:38;100857.28;;;15.93;80.86
69836;BME280;57132;51.972;4.450;2023-03-18T14:59:04;100850.91;;;15.84;84.21